createdAt,value
2018-09-25T00:00:54.902Z,95857.86
2018-09-25T00:03:28.893Z,95848.71
2018-09-25T00:06:02.945Z,95857.85
2018-09-25T00:08:36.935Z,95844.45
2018-09-25T00:11:10.991Z,95848.71
2018-09-25T00:13:44.931Z,95852.28
2018-09-25T00:16:19.204Z,95844.77
2018-09-25T00:18:53.201Z,95856.20
2018-09-25T00:21:27.185Z,95863.08
2018-09-25T00:24:01.093Z,95860.47
2018-09-25T00:26:35.039Z,95851.80
2018-09-25T00:29:09.217Z,95854.91
2018-09-25T00:31:43.168Z,95869.94
2018-09-25T00:34:17.029Z,95871.75
2018-09-25T00:36:51.493Z,95863.40
2018-09-25T00:39:25.382Z,95859.65
2018-09-25T00:42:06.068Z,95874.52
2018-09-25T00:44:40.028Z,95869.95
2018-09-25T00:47:14.024Z,95868.96
2018-09-25T00:49:47.893Z,95875.36
2018-09-25T00:52:21.832Z,95867.83
2018-09-25T00:54:55.827Z,95863.89
2018-09-25T00:57:29.837Z,95879.11
2018-09-25T01:00:05.119Z,95876.47
2018-09-25T01:02:39.344Z,95892.17
2018-09-25T01:05:13.062Z,95887.28
2018-09-25T01:07:46.905Z,95878.62
2018-09-25T01:10:20.878Z,95886.61
2018-09-25T01:12:54.897Z,95889.56
2018-09-25T01:15:28.782Z,95888.10
2018-09-25T01:18:02.632Z,95909.31
2018-09-25T01:20:36.827Z,95901.81
2018-09-25T01:23:10.948Z,95897.72
2018-09-25T01:25:45.041Z,95894.93
2018-09-25T01:28:19.012Z,95901.95
2018-09-25T01:30:52.992Z,95906.17
2018-09-25T01:33:26.941Z,95899.02
2018-09-25T01:36:00.898Z,95892.12
2018-09-25T01:38:34.941Z,95909.09
2018-09-25T01:41:09.029Z,95904.16
2018-09-25T01:43:42.975Z,95907.28
2018-09-25T01:46:16.952Z,95904.50
2018-09-25T01:48:50.904Z,95902.03
2018-09-25T01:51:24.897Z,95911.15
2018-09-25T01:53:58.844Z,95916.05
2018-09-25T01:56:32.759Z,95918.29
2018-09-25T01:59:06.681Z,95916.86
2018-09-25T02:01:40.697Z,95917.53
2018-09-25T02:04:14.748Z,95906.99
2018-09-25T02:06:48.878Z,95910.42
2018-09-25T02:09:22.903Z,95922.15
2018-09-25T02:11:56.880Z,95918.38
2018-09-25T02:14:30.800Z,95917.56
2018-09-25T02:17:04.711Z,95924.09
2018-09-25T02:19:38.757Z,95921.11
2018-09-25T02:22:12.715Z,95920.30
2018-09-25T02:24:46.631Z,95918.31
2018-09-25T02:27:20.600Z,95929.77
2018-09-25T02:29:54.543Z,95928.75
2018-09-25T02:32:28.504Z,95929.13
2018-09-25T02:35:02.498Z,95930.25
2018-09-25T02:37:36.512Z,95931.41
2018-09-25T02:40:10.458Z,95933.98
2018-09-25T02:42:44.424Z,95933.91
2018-09-25T02:45:18.608Z,95929.69
2018-09-25T02:47:52.548Z,95945.02
2018-09-25T02:50:26.514Z,95943.70
2018-09-25T02:53:00.455Z,95946.61
2018-09-25T02:55:34.442Z,95942.66
2018-09-25T02:58:08.422Z,95942.17
2018-09-25T03:00:42.388Z,95936.63
2018-09-25T03:03:16.431Z,95939.91
2018-09-25T03:05:50.355Z,95945.45
2018-09-25T03:08:24.361Z,95942.36
2018-09-25T03:10:58.285Z,95944.15
2018-09-25T03:13:32.211Z,95941.36
2018-09-25T03:16:06.152Z,95949.18
2018-09-25T03:18:40.065Z,95944.73
2018-09-25T03:21:14.188Z,95944.39
2018-09-25T03:23:48.215Z,95958.91
2018-09-25T03:26:22.407Z,95957.01
2018-09-25T03:28:56.457Z,95948.70
2018-09-25T03:31:30.495Z,95954.89
2018-09-25T03:34:04.606Z,95954.73
2018-09-25T03:36:38.538Z,95957.20
2018-09-25T03:39:13.932Z,95952.80
2018-09-25T03:41:47.970Z,95953.39
2018-09-25T03:44:22.000Z,95959.42
2018-09-25T03:46:55.978Z,95954.21
2018-09-25T03:49:30.037Z,95960.87
2018-09-25T03:52:03.982Z,95964.50
2018-09-25T03:54:37.972Z,95961.21
2018-09-25T03:57:12.389Z,95970.59
2018-09-25T03:59:46.393Z,95969.14
2018-09-25T04:02:20.187Z,95972.86
2018-09-25T04:04:54.039Z,95958.60
2018-09-25T04:07:28.016Z,95954.02
2018-09-25T04:10:02.056Z,95968.13
2018-09-25T04:12:36.002Z,95965.17
2018-09-25T04:15:09.949Z,95973.83
2018-09-25T04:17:43.898Z,95975.58
2018-09-25T04:20:17.823Z,95983.55
2018-09-25T04:22:51.779Z,95987.75
2018-09-25T04:25:26.000Z,95987.47
2018-09-25T04:27:59.900Z,95982.48
2018-09-25T04:30:33.882Z,95984.32
2018-09-25T04:33:07.860Z,95978.28
2018-09-25T04:35:41.823Z,95987.42
2018-09-25T04:38:15.755Z,95990.55
2018-09-25T04:40:49.845Z,96001.78
2018-09-25T04:43:23.772Z,96013.13
2018-09-25T04:45:57.817Z,96004.78
2018-09-25T04:48:31.907Z,96004.11
2018-09-25T04:51:05.871Z,96014.50
2018-09-25T04:53:39.785Z,96012.34
2018-09-25T04:56:13.794Z,96018.83
2018-09-25T04:58:47.731Z,96012.73
2018-09-25T05:01:21.683Z,96014.02
2018-09-25T05:03:55.554Z,96013.04
2018-09-25T05:06:29.537Z,96017.71
2018-09-25T05:09:03.502Z,96019.31
2018-09-25T05:11:37.469Z,96016.33
2018-09-25T05:14:11.413Z,96020.58
2018-09-25T05:16:45.378Z,96020.83
2018-09-25T05:19:19.268Z,96013.27
2018-09-25T05:21:53.346Z,96022.70
2018-09-25T05:24:27.296Z,96013.38
2018-09-25T05:27:01.193Z,96021.06
2018-09-25T05:29:35.450Z,96019.12
2018-09-25T05:32:09.760Z,96014.91
2018-09-25T05:34:43.864Z,96027.16
2018-09-25T05:37:17.813Z,96033.12
2018-09-25T05:39:51.886Z,96029.69
2018-09-25T05:42:25.760Z,96028.56
2018-09-25T05:44:59.764Z,96025.32
2018-09-25T05:47:33.764Z,96030.44
2018-09-25T05:50:07.731Z,96017.55
2018-09-25T05:52:41.785Z,96029.67
2018-09-25T05:55:15.636Z,96035.76
2018-09-25T05:57:49.586Z,96027.70
2018-09-25T06:00:23.559Z,96025.09
2018-09-25T06:02:57.540Z,96025.39
2018-09-25T06:05:31.531Z,96010.71
2018-09-25T06:08:05.633Z,96020.89
2018-09-25T06:10:39.767Z,96021.87
2018-09-25T06:13:13.776Z,96008.81
2018-09-25T06:15:48.249Z,96035.66
2018-09-25T06:18:22.340Z,96018.28
2018-09-25T06:20:56.295Z,96015.66
2018-09-25T06:23:30.214Z,96022.53
2018-09-25T06:26:04.185Z,96034.62
2018-09-25T06:28:38.153Z,96030.53
2018-09-25T06:31:12.165Z,96030.73
2018-09-25T06:33:46.170Z,96045.66
2018-09-25T06:36:20.179Z,96034.72
2018-09-25T06:38:54.084Z,96036.05
2018-09-25T06:41:28.086Z,96031.95
2018-09-25T06:44:02.205Z,96047.98
2018-09-25T06:46:36.163Z,96037.21
2018-09-25T06:49:10.053Z,96025.43
2018-09-25T06:51:44.004Z,96033.95
2018-09-25T06:54:17.960Z,96031.53
2018-09-25T06:56:51.881Z,96026.30
2018-09-25T06:59:25.779Z,96032.05
2018-09-25T07:01:59.794Z,96032.04
2018-09-25T07:04:42.180Z,96037.44
2018-09-25T07:07:16.164Z,96053.48
2018-09-25T07:09:50.314Z,96036.80
2018-09-25T07:12:24.353Z,96022.21
2018-09-25T07:14:58.308Z,96035.31
2018-09-25T07:17:32.313Z,96044.81
2018-09-25T07:20:06.528Z,96056.44
2018-09-25T07:22:40.643Z,96053.66
2018-09-25T07:25:14.566Z,96048.89
2018-09-25T07:27:48.448Z,96049.08
2018-09-25T07:30:22.463Z,96045.78
2018-09-25T07:32:56.561Z,96065.92
2018-09-25T07:35:30.621Z,96052.84
2018-09-25T07:38:04.664Z,96061.34
2018-09-25T07:40:38.680Z,96065.59
2018-09-25T07:43:12.572Z,96059.87
2018-09-25T07:45:46.544Z,96069.87
2018-09-25T07:48:20.578Z,96065.93
2018-09-25T07:50:54.952Z,96066.59
2018-09-25T07:53:29.220Z,96057.12
2018-09-25T07:56:03.431Z,96045.45
2018-09-25T07:58:37.329Z,96047.25
2018-09-25T08:01:11.676Z,96052.33
2018-09-25T08:03:45.732Z,96052.17
2018-09-25T08:06:19.760Z,96052.33
2018-09-25T08:08:53.785Z,96046.25
2018-09-25T08:11:28.020Z,96053.14
2018-09-25T08:14:02.086Z,96051.45
2018-09-25T08:16:36.095Z,96058.00
2018-09-25T08:19:10.292Z,96047.16
2018-09-25T08:21:44.179Z,96048.80
2018-09-25T08:24:18.130Z,96051.39
2018-09-25T08:26:52.088Z,96050.33
2018-09-25T08:29:26.113Z,96057.55
2018-09-25T08:32:00.028Z,96048.37
2018-09-25T08:34:33.952Z,96048.69
2018-09-25T08:37:07.988Z,96058.85
2018-09-25T08:39:42.042Z,96057.99
2018-09-25T08:42:16.224Z,96067.67
2018-09-25T08:44:50.159Z,96058.81
2018-09-25T08:47:24.126Z,96054.99
2018-09-25T08:49:58.122Z,96036.69
2018-09-25T08:52:32.115Z,96063.70
2018-09-25T08:55:06.127Z,96062.19
2018-09-25T08:57:40.261Z,96059.92
2018-09-25T09:00:16.984Z,96058.08
2018-09-25T09:02:51.049Z,96051.88
2018-09-25T09:05:25.086Z,96056.17
2018-09-25T09:07:59.010Z,96062.94
2018-09-25T09:10:32.967Z,96054.22
2018-09-25T09:13:07.728Z,96053.59
2018-09-25T09:15:41.777Z,96046.93
2018-09-25T09:18:15.993Z,96058.98
2018-09-25T09:20:49.921Z,96055.12
2018-09-25T09:23:23.820Z,96062.75
2018-09-25T09:25:57.776Z,96057.27
2018-09-25T09:28:31.787Z,96046.66
2018-09-25T09:31:05.727Z,96048.18
2018-09-25T09:33:39.652Z,96056.77
2018-09-25T09:36:13.695Z,96053.87
2018-09-25T09:38:47.679Z,96049.58
2018-09-25T09:41:21.833Z,96058.88
2018-09-25T09:43:55.925Z,96057.23
2018-09-25T09:46:29.914Z,96042.98
2018-09-25T09:49:03.830Z,96053.53
2018-09-25T09:51:37.808Z,96050.05
2018-09-25T09:54:11.789Z,96035.09
2018-09-25T09:56:45.844Z,96055.38
2018-09-25T09:59:19.898Z,96046.27
2018-09-25T10:01:53.874Z,96044.25
2018-09-25T10:04:27.857Z,96037.45
2018-09-25T10:07:01.749Z,96053.06
2018-09-25T10:09:36.018Z,96038.30
2018-09-25T10:12:10.006Z,96040.66
2018-09-25T10:14:44.066Z,96045.13
2018-09-25T10:17:18.026Z,96043.09
2018-09-25T10:19:52.009Z,96037.22
2018-09-25T10:22:26.011Z,96052.31
2018-09-25T10:24:59.991Z,96038.63
2018-09-25T10:27:33.875Z,96041.66
2018-09-25T10:30:08.078Z,96033.27
2018-09-25T10:32:41.955Z,96020.91
2018-09-25T10:35:16.097Z,96025.02
2018-09-25T10:37:50.066Z,96036.16
2018-09-25T10:40:24.065Z,96035.52
2018-09-25T10:42:58.080Z,96028.77
2018-09-25T10:45:32.037Z,96024.25
2018-09-25T10:48:06.030Z,96014.36
2018-09-25T10:50:40.029Z,96016.55
2018-09-25T10:53:14.047Z,96008.87
2018-09-25T10:55:48.315Z,96019.36
2018-09-25T10:58:22.273Z,96006.14
2018-09-25T11:00:56.273Z,95999.73
2018-09-25T11:03:30.339Z,95991.91
2018-09-25T11:06:04.521Z,95983.62
2018-09-25T11:08:38.634Z,95996.69
2018-09-25T11:11:13.317Z,95990.56
2018-09-25T11:13:47.291Z,95995.70
2018-09-25T11:16:21.472Z,95979.53
2018-09-25T11:18:55.723Z,95981.48
2018-09-25T11:21:29.670Z,95972.19
2018-09-25T11:24:03.674Z,95979.72
2018-09-25T11:26:37.656Z,95984.47
2018-09-25T11:29:11.701Z,95971.23
2018-09-25T11:31:45.907Z,95971.39
2018-09-25T11:34:19.818Z,95968.48
2018-09-25T11:36:53.813Z,95958.28
2018-09-25T11:39:27.724Z,95963.19
2018-09-25T11:42:01.604Z,95963.47
2018-09-25T11:44:35.592Z,95954.77
2018-09-25T11:47:09.585Z,95951.16
2018-09-25T11:49:43.822Z,95953.47
2018-09-25T11:52:17.840Z,95952.89
2018-09-25T11:54:51.924Z,95959.12
2018-09-25T11:57:25.981Z,95960.72
2018-09-25T12:00:00.065Z,95953.21
2018-09-25T12:02:34.306Z,95949.05
2018-09-25T12:05:08.307Z,95941.13
2018-09-25T12:07:42.496Z,95943.04
2018-09-25T12:10:16.460Z,95944.98
2018-09-25T12:12:50.567Z,95949.74
2018-09-25T12:15:24.708Z,95967.73
2018-09-25T12:17:58.688Z,95952.66
2018-09-25T12:20:32.655Z,95957.37
2018-09-25T12:23:06.605Z,95957.29
2018-09-25T12:25:40.605Z,95946.10
2018-09-25T12:28:14.858Z,95950.58
2018-09-25T12:30:48.986Z,95945.72
2018-09-25T12:33:23.198Z,95932.31
2018-09-25T12:35:57.108Z,95939.55
2018-09-25T12:38:31.309Z,95939.43
2018-09-25T12:41:05.304Z,95946.73
2018-09-25T12:43:39.512Z,95945.99
2018-09-25T12:46:13.602Z,95941.14
2018-09-25T12:48:47.656Z,95933.13
2018-09-25T12:51:21.565Z,95933.05
2018-09-25T12:53:55.610Z,95936.40
2018-09-25T12:56:29.572Z,95937.72
2018-09-25T12:59:03.660Z,95934.31
2018-09-25T13:01:37.689Z,95929.73
2018-09-25T13:04:12.221Z,95926.06
2018-09-25T13:06:46.469Z,95926.60
2018-09-25T13:09:20.535Z,95929.84
2018-09-25T13:11:54.597Z,95936.96
2018-09-25T13:14:28.652Z,95932.04
2018-09-25T13:17:02.612Z,95931.62
2018-09-25T13:19:36.574Z,95931.81
2018-09-25T13:22:10.555Z,95926.18
2018-09-25T13:24:44.498Z,95924.47
2018-09-25T13:27:18.533Z,95921.05
2018-09-25T13:29:52.563Z,95911.30
2018-09-25T13:32:26.743Z,95922.25
2018-09-25T13:35:00.727Z,95923.34
2018-09-25T13:37:34.676Z,95917.66
2018-09-25T13:40:08.716Z,95921.39
2018-09-25T13:42:42.792Z,95930.14
2018-09-25T13:45:17.041Z,95938.19
2018-09-25T13:47:50.907Z,95941.08
2018-09-25T13:50:24.963Z,95945.15
2018-09-25T13:52:59.024Z,95940.25
2018-09-25T13:55:32.939Z,95936.91
2018-09-25T13:58:09.237Z,95944.22
2018-09-25T14:00:43.254Z,95936.98
2018-09-25T14:03:17.283Z,95950.81
2018-09-25T14:05:51.379Z,95951.83
2018-09-25T14:08:25.352Z,95942.94
2018-09-25T14:10:59.396Z,95938.16
2018-09-25T14:13:33.484Z,95941.30
2018-09-25T14:16:08.950Z,95938.66
2018-09-25T14:18:43.153Z,95947.40
2018-09-25T14:21:17.282Z,95943.63
2018-09-25T14:23:51.452Z,95946.42
2018-09-25T14:26:25.475Z,95954.55
2018-09-25T14:28:59.504Z,95949.21
2018-09-25T14:31:33.515Z,95954.95
2018-09-25T14:34:07.602Z,95962.24
2018-09-25T14:36:41.751Z,95967.20
2018-09-25T14:39:15.732Z,95945.75
2018-09-25T14:41:49.763Z,95949.86
2018-09-25T14:44:23.661Z,95951.45
2018-09-25T14:46:57.692Z,95944.79
2018-09-25T14:49:31.719Z,95960.73
2018-09-25T14:52:05.824Z,95957.11
2018-09-25T14:54:39.837Z,95963.83
2018-09-25T14:57:14.054Z,95969.60
2018-09-25T14:59:48.282Z,95980.97
2018-09-25T15:02:22.398Z,95979.52
2018-09-25T15:04:56.509Z,95977.06
2018-09-25T15:07:30.791Z,95980.92
2018-09-25T15:10:04.796Z,95983.73
2018-09-25T15:12:38.732Z,95989.02
2018-09-25T15:15:12.709Z,95987.33
2018-09-25T15:17:46.741Z,95983.87
2018-09-25T15:20:21.003Z,95987.14
2018-09-25T15:22:55.078Z,95988.64
2018-09-25T15:25:28.986Z,95991.70
2018-09-25T15:28:04.646Z,96000.61
2018-09-25T15:30:38.857Z,96015.63
2018-09-25T15:33:12.783Z,96015.72
2018-09-25T15:35:47.115Z,96013.04
2018-09-25T15:38:21.345Z,96018.62
2018-09-25T15:40:55.385Z,96014.41
2018-09-25T15:43:29.563Z,96019.06
2018-09-25T15:46:03.677Z,96028.97
2018-09-25T15:48:37.788Z,96030.91
2018-09-25T15:51:11.958Z,96032.16
2018-09-25T15:53:45.970Z,96036.11
2018-09-25T15:56:19.969Z,96045.66
2018-09-25T15:58:54.206Z,96044.91
2018-09-25T16:01:29.303Z,96047.80
2018-09-25T16:04:03.482Z,96046.20
2018-09-25T16:06:37.595Z,96047.80
2018-09-25T16:09:14.553Z,96057.46
2018-09-25T16:11:48.556Z,96070.30
2018-09-25T16:14:22.574Z,96054.58
2018-09-25T16:16:56.495Z,96056.80
2018-09-25T16:19:30.765Z,96073.49
2018-09-25T16:22:05.049Z,96071.62
2018-09-25T16:24:39.255Z,96084.55
2018-09-25T16:27:13.280Z,96090.31
2018-09-25T16:29:48.434Z,96089.31
2018-09-25T16:32:22.597Z,96096.48
2018-09-25T16:34:56.662Z,96097.03
2018-09-25T16:37:30.669Z,96091.68
2018-09-25T16:40:04.752Z,96097.28
2018-09-25T16:42:39.028Z,96107.13
2018-09-25T16:45:13.311Z,96122.36
2018-09-25T16:47:47.354Z,96126.68
2018-09-25T16:50:21.269Z,96129.09
2018-09-25T16:52:55.180Z,96126.03
2018-09-25T16:55:29.146Z,96143.69
2018-09-25T16:58:03.153Z,96135.88
2018-09-25T17:00:37.094Z,96149.24
2018-09-25T17:03:11.269Z,96144.66
2018-09-25T17:05:45.230Z,96160.75
2018-09-25T17:08:19.708Z,96166.08
2018-09-25T17:10:53.693Z,96158.23
2018-09-25T17:13:27.779Z,96159.55
2018-09-25T17:16:01.725Z,96164.47
2018-09-25T17:18:35.747Z,96166.08
2018-09-25T17:21:09.918Z,96175.64
2018-09-25T17:23:43.981Z,96179.94
2018-09-25T17:26:17.974Z,96183.59
2018-09-25T17:28:51.915Z,96191.80
2018-09-25T17:31:25.896Z,96201.16
2018-09-25T17:34:00.024Z,96206.70
2018-09-25T17:36:33.977Z,96198.98
2018-09-25T17:39:07.986Z,96202.80
2018-09-25T17:41:42.102Z,96206.09
2018-09-25T17:44:16.058Z,96207.92
2018-09-25T17:46:50.049Z,96221.72
2018-09-25T17:49:24.134Z,96225.00
2018-09-25T17:51:58.252Z,96222.70
2018-09-25T17:54:32.200Z,96224.31
2018-09-25T17:57:06.487Z,96222.01
2018-09-25T17:59:40.675Z,96222.34
2018-09-25T18:02:14.677Z,96217.74
2018-09-25T18:04:48.605Z,96220.41
2018-09-25T18:07:22.518Z,96224.02
2018-09-25T18:09:56.589Z,96230.78
2018-09-25T18:12:30.512Z,96234.52
2018-09-25T18:15:04.663Z,96236.33
2018-09-25T18:17:38.712Z,96235.83
2018-09-25T18:20:12.686Z,96237.31
2018-09-25T18:22:46.713Z,96248.01
2018-09-25T18:25:20.752Z,96252.58
2018-09-25T18:27:54.762Z,96263.70
2018-09-25T18:30:28.842Z,96264.03
2018-09-25T18:33:02.873Z,96259.11
2018-09-25T18:35:37.071Z,96261.58
2018-09-25T18:38:11.263Z,96263.70
2018-09-25T18:40:46.112Z,96267.98
2018-09-25T18:43:20.092Z,96272.57
2018-09-25T18:45:54.068Z,96286.39
2018-09-25T18:48:28.176Z,96288.36
2018-09-25T18:51:02.157Z,96287.40
2018-09-25T18:53:36.168Z,96286.09
2018-09-25T18:56:10.183Z,96282.48
2018-09-25T18:58:44.148Z,96295.41
2018-09-25T19:01:18.248Z,96291.64
2018-09-25T19:03:52.316Z,96295.91
2018-09-25T19:06:26.325Z,96290.00
2018-09-25T19:09:00.275Z,96293.64
2018-09-25T19:11:34.283Z,96298.22
2018-09-25T19:14:08.257Z,96300.06
2018-09-25T19:16:42.520Z,96304.47
2018-09-25T19:19:16.633Z,96313.36
2018-09-25T19:21:50.697Z,96321.08
2018-09-25T19:24:24.784Z,96317.63
2018-09-25T19:26:58.802Z,96318.61
2018-09-25T19:29:32.953Z,96326.83
2018-09-25T19:32:06.961Z,96321.23
2018-09-25T19:34:41.025Z,96323.38
2018-09-25T19:37:15.061Z,96322.72
2018-09-25T19:39:48.960Z,96322.70
2018-09-25T19:42:22.911Z,96322.23
2018-09-25T19:44:56.816Z,96332.23
2018-09-25T19:47:30.886Z,96337.48
2018-09-25T19:50:04.855Z,96335.69
2018-09-25T19:52:38.830Z,96343.40
2018-09-25T19:55:12.830Z,96340.94
2018-09-25T19:57:46.889Z,96335.83
2018-09-25T20:00:26.684Z,96340.75
2018-09-25T20:03:00.601Z,96342.58
2018-09-25T20:05:34.582Z,96354.87
2018-09-25T20:08:08.684Z,96352.73
2018-09-25T20:10:42.577Z,96363.56
2018-09-25T20:13:16.589Z,96363.89
2018-09-25T20:15:50.860Z,96360.59
2018-09-25T20:18:24.904Z,96355.68
2018-09-25T20:20:58.926Z,96362.23
2018-09-25T20:23:32.940Z,96362.23
2018-09-25T20:26:07.204Z,96362.22
2018-09-25T20:28:41.197Z,96358.44
2018-09-25T20:31:15.157Z,96361.23
2018-09-25T20:33:49.000Z,96366.95
2018-09-25T20:36:23.074Z,96365.15
2018-09-25T20:38:57.081Z,96367.92
2018-09-25T20:41:30.960Z,96370.73
2018-09-25T20:44:05.045Z,96376.62
2018-09-25T20:46:39.259Z,96375.98
2018-09-25T20:49:13.311Z,96369.55
2018-09-25T20:51:47.461Z,96372.52
2018-09-25T20:54:21.449Z,96371.16
2018-09-25T20:56:55.613Z,96375.09
2018-09-25T20:59:29.516Z,96376.92
2018-09-25T21:02:03.523Z,96378.54
2018-09-25T21:04:37.515Z,96376.72
2018-09-25T21:07:11.786Z,96373.89
2018-09-25T21:09:46.033Z,96373.25
2018-09-25T21:12:20.092Z,96377.00
2018-09-25T21:14:54.070Z,96378.01
2018-09-25T21:17:28.071Z,96372.89
2018-09-25T21:20:02.020Z,96377.09
2018-09-25T21:22:35.920Z,96376.76
2018-09-25T21:25:09.951Z,96376.58
2018-09-25T21:27:43.938Z,96372.16
2018-09-25T21:30:17.968Z,96373.13
2018-09-25T21:32:52.031Z,96370.52
2018-09-25T21:35:26.067Z,96364.27
2018-09-25T21:38:00.074Z,96376.70
2018-09-25T21:40:34.043Z,96372.73
2018-09-25T21:43:08.104Z,96376.96
2018-09-25T21:45:42.174Z,96377.75
2018-09-25T21:48:16.082Z,96369.06
2018-09-25T21:50:50.088Z,96376.77
2018-09-25T21:53:24.267Z,96369.55
2018-09-25T21:55:58.814Z,96369.36
2018-09-25T21:58:32.726Z,96369.81
2018-09-25T22:01:06.799Z,96362.10
2018-09-25T22:03:40.989Z,96363.41
2018-09-25T22:06:14.953Z,96363.36
2018-09-25T22:08:48.928Z,96366.61
2018-09-25T22:11:22.916Z,96366.46
2018-09-25T22:13:56.829Z,96368.11
2018-09-25T22:16:30.865Z,96376.83
2018-09-25T22:19:04.901Z,96377.14
2018-09-25T22:21:38.832Z,96377.48
2018-09-25T22:24:12.852Z,96372.13
2018-09-25T22:26:46.879Z,96372.58
2018-09-25T22:29:21.003Z,96369.95
2018-09-25T22:31:55.040Z,96372.42
2018-09-25T22:34:29.071Z,96373.34
2018-09-25T22:37:03.188Z,96369.72
2018-09-25T22:39:37.155Z,96369.42
2018-09-25T22:42:11.079Z,96375.77
2018-09-25T22:44:45.244Z,96376.12
2018-09-25T22:47:19.426Z,96370.06
2018-09-25T22:49:53.545Z,96374.33
2018-09-25T22:52:27.589Z,96382.47
2018-09-25T22:55:01.626Z,96389.10
2018-09-25T22:57:35.601Z,96385.95
2018-09-25T23:00:10.944Z,96383.00
2018-09-25T23:02:44.884Z,96388.37
2018-09-25T23:05:19.041Z,96390.06
2018-09-25T23:07:53.040Z,96388.66
2018-09-25T23:10:27.156Z,96388.17
2018-09-25T23:13:01.123Z,96386.66
2018-09-25T23:15:35.151Z,96385.50
2018-09-25T23:18:09.063Z,96391.56
2018-09-25T23:20:43.023Z,96393.50
2018-09-25T23:23:17.041Z,96386.94
2018-09-25T23:25:51.058Z,96382.83
2018-09-25T23:28:25.093Z,96382.20
2018-09-25T23:30:59.252Z,96386.45
2018-09-25T23:33:33.205Z,96384.81
2018-09-25T23:36:07.176Z,96382.05
2018-09-25T23:38:41.057Z,96386.31
2018-09-25T23:41:16.823Z,96386.14
2018-09-25T23:43:50.896Z,96388.25
2018-09-25T23:47:23.673Z,96389.52
2018-09-25T23:52:00.117Z,96393.66
2018-09-25T23:55:31.747Z,96392.47
2018-09-25T23:58:05.753Z,96393.70
